Time;durP1;ratioP1;P1;durP2;ratioP2;P2;SDS_P1;SDS_P2;PMS_P1;PMS_P2;Temp;Humidity;BMP_temperature;BMP_pressure;BME280_temperature;BME280_humidity;BME280_pressure;Samples;Min_cycle;Max_cycle;Signal;HPM_P1;HPM_P2
2023/04/16 00:00:12;;;;;;;;;;;;;;;;;;5044035;28;42914;-83
2023/04/16 00:02:38;;;;;;;;;;;;;;;;;;5044067;28;44046;-83
2023/04/16 00:05:04;;;;;;;;;;;;;;;;;;5044048;28;43055;-83
2023/04/16 00:07:29;;;;;;;;;;;;;;;;;;5043941;28;43491;-84
2023/04/16 00:09:55;;;;;;;;;;;;;;;;;;5044276;28;42869;-83
2023/04/16 00:12:21;;;;;;;;;;;;;;;;;;5044061;28;42980;-83
2023/04/16 00:14:48;;;;;;;;;;;;;;;;;;5044260;28;42912;-83
2023/04/16 00:17:13;;;;;;;;;;;;;;;;;;5043717;28;42972;-83
2023/04/16 00:19:39;;;;;;;;;;;;;;;;;;5044084;28;42925;-83
2023/04/16 00:22:05;;;;;;;;;;;;;;;;;;5044157;28;43856;-84
2023/04/16 00:24:31;;;;;;;;;;;;;;;;;;5043343;28;43035;-83
2023/04/16 00:26:57;;;;;;;;;;;;;;;;;;5043042;28;43166;-83
2023/04/16 00:29:23;;;;;;;;;;;;;;;;;;5047046;28;42972;-83
2023/04/16 00:31:49;;;;;;;;;;;;;;;;;;5047130;28;43254;-83
2023/04/16 00:34:15;;;;;;;;;;;;;;;;;;5046619;28;43030;-83
2023/04/16 00:36:41;;;;;;;;;;;;;;;;;;5046739;28;43471;-84
2023/04/16 00:39:07;;;;;;;;;;;;;;;;;;5047985;28;43005;-83
2023/04/16 00:41:33;;;;;;;;;;;;;;;;;;5047294;28;43920;-82
2023/04/16 00:43:59;;;;;;;;;;;;;;;;;;5046683;28;42917;-83
2023/04/16 00:46:25;;;;;;;;;;;;;;;;;;5046381;28;42893;-83
2023/04/16 00:48:51;;;;;;;;;;;;;;;;;;5046723;28;43663;-83
2023/04/16 00:51:17;;;;;;;;;;;;;;;;;;5046275;28;43789;-83
2023/04/16 00:53:42;;;;;;;;;;;;;;;;;;5047258;28;42728;-83
2023/04/16 00:56:08;;;;;;;;;;;;;;;;;;5046838;28;43959;-83
2023/04/16 00:58:34;;;;;;;;;;;;;;;;;;5046756;28;42964;-83
2023/04/16 01:01:00;;;;;;;;;;;;;;;;;;5046629;28;43532;-82
2023/04/16 01:03:26;;;;;;;;;;;;;;;;;;5046759;28;43164;-82
2023/04/16 01:05:52;;;;;;;;;;;;;;;;;;5028304;28;44554;-83
2023/04/16 01:08:18;;;;;;;;;;;;;;;;;;5039663;28;42952;-83
2023/04/16 01:10:44;;;;;;;;;;;;;;;;;;5026358;28;42854;-83
2023/04/16 01:13:10;;;;;;;;;;;;;;;;;;5027299;28;43017;-84
2023/04/16 01:15:35;;;;;;;;;;;;;;;;;;5027249;28;42897;-83
2023/04/16 01:18:01;;;;;;;;;;;;;;;;;;5026569;28;43052;-83
2023/04/16 01:20:27;;;;;;;;;;;;;;;;;;5008438;28;43622;-83
2023/04/16 01:22:53;;;;;;;;;;;;;;;;;;5036747;28;42918;-83
2023/04/16 01:25:19;;;;;;;;;;;;;;;;;;5046170;28;43619;-83
2023/04/16 01:27:45;;;;;;;;;;;;;;;;;;5046014;28;42933;-83
2023/04/16 01:30:11;;;;;;;;;;;;;;;;;;5027890;28;43466;-84
2023/04/16 01:32:37;;;;;;;;;;;;;;;;;;5046487;28;43122;-83
2023/04/16 01:35:03;;;;;;;;;;;;;;;;;;5045888;28;43499;-83
2023/04/16 01:37:28;;;;;;;;;;;;;;;;;;5046831;28;42957;-83
2023/04/16 01:39:54;;;;;;;;;;;;;;;;;;5023163;28;44619;-82
2023/04/16 01:42:20;;;;;;;;;;;;;;;;;;5025706;28;43070;-82
2023/04/16 01:44:46;;;;;;;;;;;;;;;;;;5025956;28;42931;-83
2023/04/16 01:47:12;;;;;;;;;;;;;;;;;;5026766;28;43074;-83
2023/04/16 01:49:38;;;;;;;;;;;;;;;;;;5026144;28;43906;-83
2023/04/16 01:52:06;;;;;;;;;;;;;;;;;;5026851;28;43161;-82
2023/04/16 01:54:32;;;;;;;;;;;;;;;;;;5026631;28;42860;-82
2023/04/16 01:56:58;;;;;;;;;;;;;;;;;;5026488;28;43134;-82
2023/04/16 01:59:24;;;;;;;;;;;;;;;;;;5035404;28;43028;-82
2023/04/16 02:01:50;;;;;;;;;;;;;;;;;;5045609;28;43138;-82
2023/04/16 02:04:16;;;;;;;;;;;;;;;;;;5026130;28;45532;-82
2023/04/16 02:06:41;;;;;;;;;;;;;;;;;;5045469;28;43492;-82
2023/04/16 02:09:07;;;;;;;;;;;;;;;;;;5027385;28;43639;-83
2023/04/16 02:11:33;;;;;;;;;;;;;;;;;;5045625;28;42839;-82
2023/04/16 02:13:59;;;;;;;;;;;;;;;;;;5045330;28;43473;-83
2023/04/16 02:16:25;;;;;;;;;;;;;;;;;;5045609;28;42880;-82
2023/04/16 02:18:51;;;;;;;;;;;;;;;;;;5045422;28;42925;-83
2023/04/16 02:21:17;;;;;;;;;;;;;;;;;;5045423;28;43116;-82
2023/04/16 02:23:46;;;;;;;;;;;;;;;;;;5040866;28;43419;-82
2023/04/16 02:26:12;;;;;;;;;;;;;;;;;;5024943;28;43150;-82
2023/04/16 02:28:38;;;;;;;;;;;;;;;;;;5025617;28;42851;-83
2023/04/16 02:31:04;;;;;;;;;;;;;;;;;;5028697;28;43002;-83
2023/04/16 02:33:30;;;;;;;;;;;;;;;;;;5044744;28;43015;-83
2023/04/16 02:35:56;;;;;;;;;;;;;;;;;;5026868;28;43111;-83
2023/04/16 02:38:22;;;;;;;;;;;;;;;;;;5044708;28;43562;-82
2023/04/16 02:40:48;;;;;;;;;;;;;;;;;;5045203;28;43006;-81
2023/04/16 02:43:14;;;;;;;;;;;;;;;;;;5027087;28;44965;-83
2023/04/16 02:45:40;;;;;;;;;;;;;;;;;;5043418;28;42998;-83
2023/04/16 02:48:07;;;;;;;;;;;;;;;;;;5029558;28;43266;-83
2023/04/16 02:50:33;;;;;;;;;;;;;;;;;;5024763;28;42937;-83
2023/04/16 02:52:59;;;;;;;;;;;;;;;;;;5024806;28;43085;-82
2023/04/16 02:55:25;;;;;;;;;;;;;;;;;;5006910;28;43539;-83
2023/04/16 02:57:51;;;;;;;;;;;;;;;;;;5024818;28;42957;-83
2023/04/16 03:00:17;;;;;;;;;;;;;;;;;;5006914;28;42956;-82
2023/04/16 03:02:43;;;;;;;;;;;;;;;;;;5025129;28;43815;-83
2023/04/16 03:05:09;;;;;;;;;;;;;;;;;;5006825;28;42953;-83
2023/04/16 03:07:37;;;;;;;;;;;;;;;;;;5024281;28;43558;-83
2023/04/16 03:10:03;;;;;;;;;;;;;;;;;;5024515;28;42755;-83
2023/04/16 03:12:29;;;;;;;;;;;;;;;;;;5022009;28;44004;-82
2023/04/16 03:14:55;;;;;;;;;;;;;;;;;;5024558;28;44055;-83
2023/04/16 03:17:21;;;;;;;;;;;;;;;;;;5024201;28;44174;-83
2023/04/16 03:19:49;;;;;;;;;;;;;;;;;;5024453;28;42934;-83
2023/04/16 03:22:15;;;;;;;;;;;;;;;;;;5024156;28;43447;-82
2023/04/16 03:24:41;;;;;;;;;;;;;;;;;;5024868;28;42932;-82
2023/04/16 03:27:07;;;;;;;;;;;;;;;;;;5022939;28;43544;-83
2023/04/16 03:29:33;;;;;;;;;;;;;;;;;;5023911;28;43425;-82
2023/04/16 03:31:59;;;;;;;;;;;;;;;;;;5005431;28;45763;-83
2023/04/16 03:34:25;;;;;;;;;;;;;;;;;;5006757;28;42856;-83
2023/04/16 03:36:50;;;;;;;;;;;;;;;;;;5023882;28;43427;-83
2023/04/16 03:39:16;;;;;;;;;;;;;;;;;;5024998;28;42869;-83
2023/04/16 03:41:42;;;;;;;;;;;;;;;;;;5024257;28;42862;-83
2023/04/16 03:44:08;;;;;;;;;;;;;;;;;;5024413;28;43399;-83
2023/04/16 03:46:34;;;;;;;;;;;;;;;;;;5004659;28;45459;-82
2023/04/16 03:49:00;;;;;;;;;;;;;;;;;;5033054;28;43084;-82
2023/04/16 03:51:26;;;;;;;;;;;;;;;;;;5044028;28;43893;-83
2023/04/16 03:53:52;;;;;;;;;;;;;;;;;;5041997;28;42905;-83
2023/04/16 03:56:18;;;;;;;;;;;;;;;;;;5044008;28;42993;-83
2023/04/16 03:58:44;;;;;;;;;;;;;;;;;;5041839;28;43548;-83
2023/04/16 04:01:10;;;;;;;;;;;;;;;;;;5044486;28;43308;-84
2023/04/16 04:03:35;;;;;;;;;;;;;;;;;;5045697;28;42896;-83
2023/04/16 04:06:01;;;;;;;;;;;;;;;;;;5045191;28;43641;-84
2023/04/16 04:08:27;;;;;;;;;;;;;;;;;;5040965;28;42937;-84
2023/04/16 04:10:53;;;;;;;;;;;;;;;;;;5037924;28;43708;-84
2023/04/16 04:13:19;;;;;;;;;;;;;;;;;;5045389;28;43004;-84
2023/04/16 04:15:45;;;;;;;;;;;;;;;;;;5046647;28;42894;-84
2023/04/16 04:18:11;;;;;;;;;;;;;;;;;;5047001;28;42988;-84
2023/04/16 04:20:37;;;;;;;;;;;;;;;;;;5047190;28;43583;-84
2023/04/16 04:23:03;;;;;;;;;;;;;;;;;;5047313;28;42918;-84
2023/04/16 04:25:29;;;;;;;;;;;;;;;;;;5047228;28;43526;-84
2023/04/16 04:27:55;;;;;;;;;;;;;;;;;;5047286;28;43147;-84
2023/04/16 04:30:21;;;;;;;;;;;;;;;;;;5046791;28;43810;-84
2023/04/16 04:32:47;;;;;;;;;;;;;;;;;;5046978;28;42988;-83
2023/04/16 04:35:13;;;;;;;;;;;;;;;;;;5045391;28;43087;-84
2023/04/16 04:37:39;;;;;;;;;;;;;;;;;;5047245;28;43041;-84
2023/04/16 04:40:04;;;;;;;;;;;;;;;;;;5047376;28;43653;-84
2023/04/16 04:42:30;;;;;;;;;;;;;;;;;;5047387;28;42888;-84
2023/04/16 04:44:56;;;;;;;;;;;;;;;;;;5047141;28;43039;-84
2023/04/16 04:47:22;;;;;;;;;;;;;;;;;;5028946;28;43273;-84
2023/04/16 04:49:48;;;;;;;;;;;;;;;;;;5046106;28;42893;-84
2023/04/16 04:52:14;;;;;;;;;;;;;;;;;;5046189;28;43048;-84
2023/04/16 04:54:40;;;;;;;;;;;;;;;;;;5046433;28;43788;-84
2023/04/16 04:57:06;;;;;;;;;;;;;;;;;;5046789;28;42896;-84
2023/04/16 04:59:32;;;;;;;;;;;;;;;;;;5046787;28;43651;-83
2023/04/16 05:01:58;;;;;;;;;;;;;;;;;;5046311;28;42928;-85
2023/04/16 05:04:24;;;;;;;;;;;;;;;;;;5047144;28;43535;-84
2023/04/16 05:06:50;;;;;;;;;;;;;;;;;;5028099;28;43043;-84
2023/04/16 05:09:16;;;;;;;;;;;;;;;;;;5046826;28;43769;-84
2023/04/16 05:11:42;;;;;;;;;;;;;;;;;;5046908;28;42947;-84
2023/04/16 05:14:08;;;;;;;;;;;;;;;;;;5041165;28;42766;-84
2023/04/16 05:16:33;;;;;;;;;;;;;;;;;;5037912;28;43024;-84
2023/04/16 05:18:59;;;;;;;;;;;;;;;;;;5035681;28;43126;-84
2023/04/16 05:21:25;;;;;;;;;;;;;;;;;;5034588;28;42885;-84
2023/04/16 05:23:51;;;;;;;;;;;;;;;;;;5024836;28;43932;-84
2023/04/16 05:26:17;;;;;;;;;;;;;;;;;;5046027;28;42922;-84
2023/04/16 05:28:43;;;;;;;;;;;;;;;;;;5046382;28;43155;-84
2023/04/16 05:31:09;;;;;;;;;;;;;;;;;;5044794;28;43442;-83
2023/04/16 05:33:35;;;;;;;;;;;;;;;;;;5041571;28;43042;-83
2023/04/16 05:36:01;;;;;;;;;;;;;;;;;;5040438;28;44855;-83
2023/04/16 05:38:27;;;;;;;;;;;;;;;;;;5036758;28;42918;-83
2023/04/16 05:40:52;;;;;;;;;;;;;;;;;;5029061;28;42983;-84
2023/04/16 05:43:18;;;;;;;;;;;;;;;;;;5015782;28;44711;-84
2023/04/16 05:45:44;;;;;;;;;;;;;;;;;;5031837;28;42936;-84
2023/04/16 05:48:11;;;;;;;;;;;;;;;;;;5040063;28;42953;-84
2023/04/16 05:50:37;;;;;;;;;;;;;;;;;;5039509;28;43004;-84
2023/04/16 05:53:03;;;;;;;;;;;;;;;;;;5023409;28;44273;-83
2023/04/16 05:55:28;;;;;;;;;;;;;;;;;;5036436;28;43037;-81
2023/04/16 05:57:54;;;;;;;;;;;;;;;;;;5030656;28;43055;-79
2023/04/16 06:00:20;;;;;;;;;;;;;;;;;;5025397;28;43044;-78
2023/04/16 06:02:46;;;;;;;;;;;;;;;;;;5039757;28;43319;-77
2023/04/16 06:05:12;;;;;;;;;;;;;;;;;;5034376;28;43224;-77
2023/04/16 06:07:41;;;;;;;;;;;;;;;;;;5035557;28;43281;-87
2023/04/16 06:10:18;;;;;;;;;;;;;;;;;;5033391;28;42941;-89
2023/04/16 06:12:47;;;;;;;;;;;;;;;;;;5017164;28;45208;-88
2023/04/16 06:15:16;;;;;;;;;;;;;;;;;;5017309;28;43078;-88
2023/04/16 06:17:42;;;;;;;;;;;;;;;;;;5034300;28;43479;-81
2023/04/16 06:20:08;;;;;;;;;;;;;;;;;;5027401;28;43419;-88
2023/04/16 06:22:38;;;;;;;;;;;;;;;;;;5007977;28;43477;-87
2023/04/16 06:25:06;;;;;;;;;;;;;;;;;;5033443;28;43249;-88
2023/04/16 06:27:32;;;;;;;;;;;;;;;;;;5037347;28;43014;-88
2023/04/16 06:29:59;;;;;;;;;;;;;;;;;;5013412;28;43107;-87
2023/04/16 06:32:31;;;;;;;;;;;;;;;;;;5013775;28;43072;-89
2023/04/16 06:34:57;;;;;;;;;;;;;;;;;;5011819;28;43024;-90
2023/04/16 06:37:23;;;;;;;;;;;;;;;;;;5007019;28;42972;-79
2023/04/16 06:39:49;;;;;;;;;;;;;;;;;;5023070;28;43109;-83
2023/04/16 06:42:15;;;;;;;;;;;;;;;;;;5023705;28;45120;-79
2023/04/16 06:44:41;;;;;;;;;;;;;;;;;;5032742;28;43051;-81
2023/04/16 06:47:10;;;;;;;;;;;;;;;;;;5045078;28;43567;-82
2023/04/16 06:49:38;;;;;;;;;;;;;;;;;;5025943;28;42971;-82
2023/04/16 06:52:04;;;;;;;;;;;;;;;;;;5024528;28;43179;-84
2023/04/16 06:54:30;;;;;;;;;;;;;;;;;;5022923;28;43328;-78
2023/04/16 06:56:56;;;;;;;;;;;;;;;;;;5017363;28;43087;-82
2023/04/16 06:59:22;;;;;;;;;;;;;;;;;;5006277;28;43048;-81
2023/04/16 07:01:50;;;;;;;;;;;;;;;;;;5023004;28;43639;-81
2023/04/16 07:04:16;;;;;;;;;;;;;;;;;;5033104;28;43642;-77
2023/04/16 07:06:42;;;;;;;;;;;;;;;;;;5043216;28;43755;-80
2023/04/16 07:09:08;;;;;;;;;;;;;;;;;;5026081;28;42929;-77
2023/04/16 07:11:34;;;;;;;;;;;;;;;;;;5044488;28;42877;-77
2023/04/16 07:14:00;;;;;;;;;;;;;;;;;;5043045;28;43084;-76
2023/04/16 07:16:26;;;;;;;;;;;;;;;;;;5043716;28;43278;-77
2023/04/16 07:18:52;;;;;;;;;;;;;;;;;;5043691;28;42967;-76
2023/04/16 07:21:18;;;;;;;;;;;;;;;;;;5024654;28;43993;-77
2023/04/16 07:23:44;;;;;;;;;;;;;;;;;;5024083;28;43496;-77
2023/04/16 07:26:10;;;;;;;;;;;;;;;;;;5023557;28;43048;-76
2023/04/16 07:28:36;;;;;;;;;;;;;;;;;;5024768;28;42912;-76
2023/04/16 07:31:02;;;;;;;;;;;;;;;;;;5013750;28;43455;-78
2023/04/16 07:33:28;;;;;;;;;;;;;;;;;;5043869;28;43019;-76
2023/04/16 07:35:54;;;;;;;;;;;;;;;;;;5044162;28;42983;-76
2023/04/16 07:38:20;;;;;;;;;;;;;;;;;;5046867;28;42896;-76
2023/04/16 07:40:46;;;;;;;;;;;;;;;;;;5047938;28;43336;-76
2023/04/16 07:43:12;;;;;;;;;;;;;;;;;;5046734;28;43773;-75
2023/04/16 07:45:38;;;;;;;;;;;;;;;;;;5009248;28;44368;-76
2023/04/16 07:48:04;;;;;;;;;;;;;;;;;;5031599;28;42941;-77
2023/04/16 07:50:30;;;;;;;;;;;;;;;;;;5047760;28;42982;-76
2023/04/16 07:52:56;;;;;;;;;;;;;;;;;;5044488;28;43031;-76
2023/04/16 07:55:21;;;;;;;;;;;;;;;;;;5026749;28;43666;-77
2023/04/16 07:57:47;;;;;;;;;;;;;;;;;;5027979;28;43013;-77
2023/04/16 08:00:13;;;;;;;;;;;;;;;;;;5042545;28;43415;-77
2023/04/16 08:02:39;;;;;;;;;;;;;;;;;;5047630;28;42857;-76
2023/04/16 08:05:05;;;;;;;;;;;;;;;;;;5029392;28;44461;-76
2023/04/16 08:07:31;;;;;;;;;;;;;;;;;;5046548;28;42911;-77
2023/04/16 08:09:57;;;;;;;;;;;;;;;;;;5047555;28;43011;-76
2023/04/16 08:12:23;;;;;;;;;;;;;;;;;;5040557;28;43031;-80
2023/04/16 08:14:49;;;;;;;;;;;;;;;;;;5026277;28;43029;-81
2023/04/16 08:17:15;;;;;;;;;;;;;;;;;;5029868;28;42941;-79
2023/04/16 08:19:41;;;;;;;;;;;;;;;;;;5039155;28;42719;-81
2023/04/16 08:22:07;;;;;;;;;;;;;;;;;;5036068;28;43036;-81
2023/04/16 08:24:33;;;;;;;;;;;;;;;;;;5046198;28;43435;-81
2023/04/16 08:26:59;;;;;;;;;;;;;;;;;;5046831;28;42873;-79
2023/04/16 08:29:25;;;;;;;;;;;;;;;;;;5046748;28;43182;-82
2023/04/16 08:31:51;;;;;;;;;;;;;;;;;;5035463;28;43006;-80
2023/04/16 08:34:17;;;;;;;;;;;;;;;;;;5046875;28;43283;-81
2023/04/16 08:36:42;;;;;;;;;;;;;;;;;;5046670;28;42968;-82
2023/04/16 08:39:08;;;;;;;;;;;;;;;;;;5046755;28;43993;-79
2023/04/16 08:41:35;;;;;;;;;;;;;;;;;;5044189;28;43062;-80
2023/04/16 08:44:00;;;;;;;;;;;;;;;;;;5046819;28;43306;-82
2023/04/16 08:46:26;;;;;;;;;;;;;;;;;;5035583;28;42913;-80
2023/04/16 08:48:52;;;;;;;;;;;;;;;;;;5025675;28;43003;-79
2023/04/16 08:51:18;;;;;;;;;;;;;;;;;;5027659;28;43129;-82
2023/04/16 08:53:44;;;;;;;;;;;;;;;;;;5045807;28;42936;-80
2023/04/16 08:56:10;;;;;;;;;;;;;;;;;;5046454;28;42989;-83
2023/04/16 08:58:37;;;;;;;;;;;;;;;;;;5046363;28;44018;-77
2023/04/16 09:01:03;;;;;;;;;;;;;;;;;;5035993;28;43003;-80
2023/04/16 09:03:28;;;;;;;;;;;;;;;;;;5046025;28;43673;-82
2023/04/16 09:05:56;;;;;;;;;;;;;;;;;;5045704;28;42938;-83
2023/04/16 09:08:22;;;;;;;;;;;;;;;;;;5047629;28;42949;-78
2023/04/16 09:10:47;;;;;;;;;;;;;;;;;;5046502;28;42886;-83
2023/04/16 09:13:15;;;;;;;;;;;;;;;;;;5045925;28;43014;-80
2023/04/16 09:15:41;;;;;;;;;;;;;;;;;;5046971;28;42962;-83
2023/04/16 09:18:07;;;;;;;;;;;;;;;;;;5040802;28;43640;-80
2023/04/16 09:20:33;;;;;;;;;;;;;;;;;;5027319;28;44087;-81
2023/04/16 09:22:59;;;;;;;;;;;;;;;;;;5026551;28;43596;-81
2023/04/16 09:25:25;;;;;;;;;;;;;;;;;;5025210;28;42898;-81
2023/04/16 09:27:51;;;;;;;;;;;;;;;;;;5024729;28;43431;-77
2023/04/16 09:30:17;;;;;;;;;;;;;;;;;;5026240;28;43040;-76
2023/04/16 09:32:43;;;;;;;;;;;;;;;;;;5029047;28;43402;-77
2023/04/16 09:35:09;;;;;;;;;;;;;;;;;;5014068;28;43012;-76
2023/04/16 09:37:35;;;;;;;;;;;;;;;;;;5026143;28;43048;-78
2023/04/16 09:40:01;;;;;;;;;;;;;;;;;;5025602;28;43048;-77
2023/04/16 09:42:27;;;;;;;;;;;;;;;;;;5025893;28;43072;-77
2023/04/16 09:44:53;;;;;;;;;;;;;;;;;;5025700;28;42819;-81
2023/04/16 09:47:19;;;;;;;;;;;;;;;;;;5026497;28;42885;-77
2023/04/16 09:49:46;;;;;;;;;;;;;;;;;;5025300;28;43168;-79
2023/04/16 09:52:12;;;;;;;;;;;;;;;;;;5024688;28;42839;-81
2023/04/16 09:54:41;;;;;;;;;;;;;;;;;;5025661;28;42938;-83
2023/04/16 09:57:07;;;;;;;;;;;;;;;;;;5028270;28;43079;-83
2023/04/16 09:59:33;;;;;;;;;;;;;;;;;;5046441;28;42983;-79
2023/04/16 10:01:59;;;;;;;;;;;;;;;;;;5042154;28;43047;-81
2023/04/16 10:04:25;;;;;;;;;;;;;;;;;;5045919;28;42949;-81
2023/04/16 10:06:51;;;;;;;;;;;;;;;;;;5045072;28;43029;-79
2023/04/16 10:09:17;;;;;;;;;;;;;;;;;;5046047;28;42966;-80
2023/04/16 10:11:44;;;;;;;;;;;;;;;;;;5037216;28;43176;-80
2023/04/16 10:14:10;;;;;;;;;;;;;;;;;;5015024;28;43105;-79
2023/04/16 10:16:38;;;;;;;;;;;;;;;;;;5006028;28;44965;-78
2023/04/16 10:19:04;;;;;;;;;;;;;;;;;;5025648;28;42886;-86
2023/04/16 10:21:32;;;;;;;;;;;;;;;;;;5035533;28;43665;-88
2023/04/16 10:23:58;;;;;;;;;;;;;;;;;;5037279;28;42791;-79
2023/04/16 10:26:24;;;;;;;;;;;;;;;;;;5034401;28;43124;-81
2023/04/16 10:28:50;;;;;;;;;;;;;;;;;;5038836;28;42988;-81
2023/04/16 10:31:16;;;;;;;;;;;;;;;;;;5015167;28;44413;-79
2023/04/16 10:33:42;;;;;;;;;;;;;;;;;;5037117;28;42960;-79
2023/04/16 10:36:08;;;;;;;;;;;;;;;;;;5036260;28;43648;-82
2023/04/16 10:38:34;;;;;;;;;;;;;;;;;;5035328;28;42981;-85
2023/04/16 10:41:00;;;;;;;;;;;;;;;;;;5033851;28;43023;-79
2023/04/16 10:43:26;;;;;;;;;;;;;;;;;;5035339;28;43025;-79
2023/04/16 10:45:52;;;;;;;;;;;;;;;;;;5042368;28;42924;-80
2023/04/16 10:48:18;;;;;;;;;;;;;;;;;;5042979;28;43159;-79
2023/04/16 10:50:44;;;;;;;;;;;;;;;;;;5034698;28;42925;-79
2023/04/16 10:53:10;;;;;;;;;;;;;;;;;;5005381;28;43177;-82
2023/04/16 10:55:36;;;;;;;;;;;;;;;;;;5008173;28;43065;-82
2023/04/16 10:58:02;;;;;;;;;;;;;;;;;;5023963;28;43048;-82
2023/04/16 11:16:38;;;;;;;;;;;;;;;;;;5121246;27;44364;-81
2023/04/16 11:19:04;;;;;;;;;;;18.20;42.10;;;;;;5122930;27;43404;-81
2023/04/16 11:21:30;;;;;;;;;;;18.30;42.20;;;;;;5110432;27;43069;-81
2023/04/16 11:23:56;;;;;;;;;;;;;;;;;;5101415;27;42842;-81
2023/04/16 11:26:22;;;;;;;;;;;;;;;;;;5101306;27;43186;-81
2023/04/16 11:28:47;;;;;;;;;;;18.30;41.60;;;;;;5100992;27;43055;-80
2023/04/16 11:31:13;;;;;;;;;;;;;;;;;;5101629;27;43039;-81
2023/04/16 11:33:39;;;;;;;;;;;18.30;42.10;;;;;;5101463;27;42928;-81
2023/04/16 11:36:05;;;;;;;;;;;;;;;;;;5101709;27;43404;-80
2023/04/16 11:38:31;;;;;;;;;;;;;;;;;;5099885;27;43847;-83
2023/04/16 11:40:57;;;;;;;;;;;;;;;;;;5096708;27;43159;-84
2023/04/16 11:43:23;;;;;;;;;;;;;;;;;;5100530;27;43702;-86
2023/04/16 11:45:49;;;;;;;;;;;;;;;;;;5101718;27;42988;-85
2023/04/16 11:48:15;;;;;;;;;;;;;;;;;;5100601;27;45039;-85
2023/04/16 11:50:41;;;;;;;;;;;;;;;;;;5095147;27;43132;-84
2023/04/16 11:53:07;;;;;;;;;;;;;;;;;;5101045;27;43620;-86
2023/04/16 11:55:33;;;;;;;;;;;;;;;;;;5100887;27;42926;-85
2023/04/16 11:58:01;;;;;;;;;;;;;;;;;;5102794;27;43391;-85
2023/04/16 12:00:27;;;;;;;;;;;;;;;;;;5099863;27;43049;-86
2023/04/16 12:02:53;;;;;;;;;;;;;;;;;;5098161;27;44777;-85
2023/04/16 12:05:26;;;;;;;;;;;18.40;41.40;;;;;;5101092;27;43189;-86
2023/04/16 12:07:52;;;;;;;;;;;18.30;41.60;;;;;;5099638;27;43030;-86
2023/04/16 12:10:18;;;;;;;;;;;;;;;;;;5100316;27;43030;-86
2023/04/16 12:12:43;;;;;;;;;;;18.40;40.80;;;;;;5102636;27;43509;-89
2023/04/16 12:15:09;;;;;;;;;;;18.30;41.40;;;;;;5103465;27;42882;-85
2023/04/16 12:17:35;;;;;;;;;;;18.20;41.60;;;;;;5094634;27;42863;-85
2023/04/16 12:20:01;;;;;;;;;;;;;;;;;;5082686;27;43016;-82
2023/04/16 12:22:27;;;;;;;;;;;;;;;;;;5090357;27;42980;-84
2023/04/16 12:24:53;;;;;;;;;;;;;;;;;;5087667;27;42877;-81
2023/04/16 12:27:21;;;;;;;;;;;;;;;;;;5081034;28;45633;-81
2023/04/16 12:30:01;;;;;;;;;;;18.50;41.00;;;;;;5090249;27;43291;-81
2023/04/16 12:32:27;;;;;;;;;;;;;;;;;;5088178;27;43063;-82
2023/04/16 12:34:53;;;;;;;;;;;;;;;;;;5093121;27;42908;-81
2023/04/16 12:37:19;;;;;;;;;;;;;;;;;;5087081;27;43017;-80
2023/04/16 12:39:45;;;;;;;;;;;;;;;;;;5086411;28;43100;-79
2023/04/16 12:42:11;;;;;;;;;;;;;;;;;;5086293;27;43153;-79
2023/04/16 12:44:37;;;;;;;;;;;;;;;;;;5083215;27;43347;-80
2023/04/16 12:47:04;;;;;;;;;;;;;;;;;;5086734;27;42965;-80
2023/04/16 12:49:30;;;;;;;;;;;;;;;;;;5087232;27;42948;-80
2023/04/16 12:51:56;;;;;;;;;;;;;;;;;;5086947;28;43630;-81
2023/04/16 12:54:21;;;;;;;;;;;18.40;41.00;;;;;;5086590;28;42957;-80
2023/04/16 12:56:47;;;;;;;;;;;18.40;41.30;;;;;;5086761;28;43520;-79
2023/04/16 12:59:13;;;;;;;;;;;;;;;;;;5086442;27;42946;-80
2023/04/16 13:01:39;;;;;;;;;;;;;;;;;;5087122;28;43737;-80
2023/04/16 13:04:04;;;;;;;;;;;;;;;;;;5086579;28;42997;-80
2023/04/16 13:06:35;;;;;;;;;;;;;;;;;;5084978;28;44283;-80
2023/04/16 13:09:01;;;;;;;;;;;18.30;41.50;;;;;;5086460;27;42937;-80
2023/04/16 13:11:27;;;;;;;;;;;;;;;;;;5086190;28;43081;-79
2023/04/16 13:13:53;;;;;;;;;;;;;;;;;;5085644;28;43103;-78
2023/04/16 13:16:18;;;;;;;;;;;;;;;;;;5085253;27;43294;-78
2023/04/16 13:18:44;;;;;;;;;;;;;;;;;;5082901;28;43003;-79
2023/04/16 13:21:11;;;;;;;;;;;;;;;;;;5086015;28;42885;-79
2023/04/16 13:23:36;;;;;;;;;;;;;;;;;;5084310;28;42972;-79
2023/04/16 13:26:02;;;;;;;;;;;;;;;;;;5086213;28;43634;-79
2023/04/16 13:28:28;;;;;;;;;;;;;;;;;;5084910;27;43059;-79
2023/04/16 13:30:54;;;;;;;;;;;18.40;42.40;;;;;;5086284;28;43988;-79
2023/04/16 13:33:20;;;;;;;;;;;;;;;;;;5085792;28;43035;-79
2023/04/16 13:35:46;;;;;;;;;;;;;;;;;;5085235;28;43918;-78
2023/04/16 13:38:12;;;;;;;;;;;18.30;41.80;;;;;;5085357;27;42846;-79
2023/04/16 13:40:37;;;;;;;;;;;18.50;42.10;;;;;;5083702;28;43440;-79
2023/04/16 13:43:03;;;;;;;;;;;18.30;42.10;;;;;;5085550;28;42909;-79
2023/04/16 13:45:29;;;;;;;;;;;;;;;;;;5085772;28;42996;-79
2023/04/16 13:47:55;;;;;;;;;;;;;;;;;;5085350;28;43019;-79
2023/04/16 13:50:21;;;;;;;;;;;;;;;;;;5083699;28;44867;-79
2023/04/16 13:52:46;;;;;;;;;;;;;;;;;;5086515;28;43024;-78
2023/04/16 13:55:12;;;;;;;;;;;;;;;;;;5085893;28;42957;-79
2023/04/16 13:57:38;;;;;;;;;;;;;;;;;;5085577;28;42794;-79
2023/04/16 14:00:04;;;;;;;;;;;;;;;;;;5085153;28;42798;-79
2023/04/16 14:02:30;;;;;;;;;;;;;;;;;;5085453;28;42830;-78
2023/04/16 14:04:56;;;;;;;;;;;18.50;42.70;;;;;;5085458;28;42878;-78
2023/04/16 14:07:25;;;;;;;;;;;;;;;;;;5085017;28;43047;-79
2023/04/16 14:09:50;;;;;;;;;;;;;;;;;;5084894;27;43566;-79
2023/04/16 14:12:16;;;;;;;;;;;;;;;;;;5085219;28;42838;-79
2023/04/16 14:14:42;;;;;;;;;;;18.50;43.00;;;;;;5083842;28;44608;-79
2023/04/16 14:17:07;;;;;;;;;;;18.40;42.90;;;;;;5085348;28;43081;-79
2023/04/16 14:19:33;;;;;;;;;;;18.30;42.70;;;;;;5085459;28;43588;-83
2023/04/16 14:21:59;;;;;;;;;;;;;;;;;;5085783;28;42929;-78
2023/04/16 14:24:25;;;;;;;;;;;;;;;;;;5085520;28;43457;-79
2023/04/16 14:26:51;;;;;;;;;;;;;;;;;;5085479;28;42987;-78
2023/04/16 14:29:16;;;;;;;;;;;;;;;;;;5084281;28;43004;-78
2023/04/16 14:31:42;;;;;;;;;;;;;;;;;;5084591;28;42997;-80
2023/04/16 14:34:08;;;;;;;;;;;;;;;;;;5083892;28;43199;-78
2023/04/16 14:36:34;;;;;;;;;;;18.60;42.40;;;;;;5083748;28;43115;-79
2023/04/16 14:39:00;;;;;;;;;;;;;;;;;;5083383;27;43885;-79
2023/04/16 14:41:26;;;;;;;;;;;;;;;;;;5084843;28;42951;-79
2023/04/16 14:43:52;;;;;;;;;;;;;;;;;;5084197;27;42976;-79
2023/04/16 14:46:18;;;;;;;;;;;18.40;42.30;;;;;;5084545;28;43075;-79
2023/04/16 14:48:44;;;;;;;;;;;;;;;;;;5082127;28;43936;-80
2023/04/16 14:51:09;;;;;;;;;;;18.40;43.10;;;;;;5082631;28;43023;-78
2023/04/16 14:53:38;;;;;;;;;;;18.50;43.00;;;;;;5085049;27;43082;-79
2023/04/16 14:56:04;;;;;;;;;;;;;;;;;;5084853;27;42971;-79
2023/04/16 14:58:31;;;;;;;;;;;;;;;;;;5084348;28;43019;-78
2023/04/16 15:00:56;;;;;;;;;;;;;;;;;;5084725;28;42912;-79
2023/04/16 15:03:22;;;;;;;;;;;;;;;;;;5084261;28;43282;-79
2023/04/16 15:05:53;;;;;;;;;;;;;;;;;;5084253;28;42897;-78
2023/04/16 15:08:19;;;;;;;;;;;;;;;;;;5084109;28;43967;-79
2023/04/16 15:10:45;;;;;;;;;;;18.50;43.20;;;;;;5083129;28;43057;-79
2023/04/16 15:13:11;;;;;;;;;;;;;;;;;;5082778;27;44635;-80
2023/04/16 15:15:37;;;;;;;;;;;;;;;;;;5082600;28;43031;-80
2023/04/16 15:18:03;;;;;;;;;;;;;;;;;;5083257;28;43278;-80
2023/04/16 15:20:29;;;;;;;;;;;;;;;;;;5080993;28;43183;-80
2023/04/16 15:22:55;;;;;;;;;;;;;;;;;;5084978;28;43100;-80
2023/04/16 15:25:22;;;;;;;;;;;;;;;;;;5084428;27;43031;-81
2023/04/16 15:27:48;;;;;;;;;;;;;;;;;;5083910;28;42870;-80
2023/04/16 15:30:13;;;;;;;;;;;18.50;43.40;;;;;;5080461;28;43120;-81
2023/04/16 15:32:39;;;;;;;;;;;;;;;;;;5084551;28;43329;-81
2023/04/16 15:35:05;;;;;;;;;;;;;;;;;;5084066;28;42932;-83
2023/04/16 15:37:31;;;;;;;;;;;;;;;;;;5082510;28;43608;-79
2023/04/16 15:39:57;;;;;;;;;;;;;;;;;;5084518;28;42808;-81
2023/04/16 15:42:23;;;;;;;;;;;;;;;;;;5084244;28;42913;-82
2023/04/16 15:44:49;;;;;;;;;;;;;;;;;;5084367;28;43016;-81
2023/04/16 15:47:14;;;;;;;;;;;;;;;;;;5084031;28;43121;-81
2023/04/16 15:49:40;;;;;;;;;;;;;;;;;;5083608;28;43037;-82
2023/04/16 15:52:06;;;;;;;;;;;18.40;43.50;;;;;;5086084;27;43425;-82
2023/04/16 15:54:31;;;;;;;;;;;18.60;43.70;;;;;;5087258;28;42902;-81
2023/04/16 15:56:57;;;;;;;;;;;;;;;;;;5086987;28;43201;-81
2023/04/16 15:59:23;;;;;;;;;;;;;;;;;;5087134;28;43045;-83
2023/04/16 16:01:49;;;;;;;;;;;;;;;;;;5085784;28;45772;-84
2023/04/16 16:04:15;;;;;;;;;;;18.50;43.30;;;;;;5087249;28;42955;-84
2023/04/16 16:06:41;;;;;;;;;;;;;;;;;;5087620;28;43005;-84
2023/04/16 16:09:07;;;;;;;;;;;;;;;;;;5087569;28;42997;-82
2023/04/16 16:11:33;;;;;;;;;;;;;;;;;;5087454;28;44141;-84
2023/04/16 16:14:01;;;;;;;;;;;;;;;;;;5087006;28;42987;-85
2023/04/16 16:16:27;;;;;;;;;;;18.50;43.10;;;;;;5086284;28;43140;-85
2023/04/16 16:18:53;;;;;;;;;;;;;;;;;;5083949;28;42904;-85
2023/04/16 16:21:19;;;;;;;;;;;;;;;;;;5087156;27;42984;-84
2023/04/16 16:23:45;;;;;;;;;;;;;;;;;;5087345;28;42979;-84
2023/04/16 16:26:11;;;;;;;;;;;18.50;43.10;;;;;;5087163;27;43093;-84
2023/04/16 16:28:37;;;;;;;;;;;;;;;;;;5087281;28;43024;-84
2023/04/16 16:31:03;;;;;;;;;;;;;;;;;;5086744;28;44014;-84
2023/04/16 16:33:29;;;;;;;;;;;;;;;;;;5087030;28;42881;-85
2023/04/16 16:35:54;;;;;;;;;;;;;;;;;;5086854;28;42961;-83
2023/04/16 16:38:20;;;;;;;;;;;;;;;;;;5086187;28;43129;-84